Time;durP1;ratioP1;P1;durP2;ratioP2;P2;SDS_P1;SDS_P2;PMS_P1;PMS_P2;Temp;Humidity;BMP_temperature;BMP_pressure;BME280_temperature;BME280_humidity;BME280_pressure;Samples;Min_cycle;Max_cycle;Signal;HPM_P1;HPM_P2
2022/11/23 00:01:11;;;;;;;;;;;7.90;99.90;;;;;;5155046;27;19907;-40
2022/11/23 00:03:36;;;;;;;;;;;7.90;99.90;;;;;;5154343;27;19974;-41
2022/11/23 00:06:02;;;;;;;;;;;7.90;99.90;;;;;;5153392;27;19958;-39
2022/11/23 00:08:28;;;;;;;;;;;7.90;99.90;;;;;;5152835;27;19918;-42
2022/11/23 00:10:56;;;;;;;;;;;7.90;99.90;;;;;;5154677;27;19965;-38
2022/11/23 00:13:22;;;;;;;;;;;7.90;99.90;;;;;;5154293;27;19907;-39
2022/11/23 00:15:47;;;;;;;;;;;7.90;99.90;;;;;;5154698;27;19940;-42
2022/11/23 00:18:13;;;;;;;;;;;7.90;99.90;;;;;;5154828;27;20289;-41
2022/11/23 00:20:39;;;;;;;;;;;7.90;99.90;;;;;;5154032;27;19911;-40
2022/11/23 00:23:04;;;;;;;;;;;8.00;99.90;;;;;;5154731;27;19914;-41
2022/11/23 00:25:30;;;;;;;;;;;8.00;99.90;;;;;;5151422;27;19911;-41
2022/11/23 00:27:55;;;;;;;;;;;8.00;99.90;;;;;;5154205;27;19906;-41
2022/11/23 00:30:21;;;;;;;;;;;8.00;99.90;;;;;;5154377;27;19915;-41
2022/11/23 00:32:46;;;;;;;;;;;8.00;99.90;;;;;;5154649;27;19956;-40
2022/11/23 00:35:11;;;;;;;;;;;8.00;99.90;;;;;;5151487;27;20385;-40
2022/11/23 00:37:37;;;;;;;;;;;8.00;99.90;;;;;;5153227;27;19911;-40
2022/11/23 00:40:03;;;;;;;;;;;8.00;99.90;;;;;;5147507;27;19990;-41
2022/11/23 00:42:28;;;;;;;;;;;8.00;99.90;;;;;;5139345;27;20438;-41
2022/11/23 00:44:54;;;;;;;;;;;8.00;99.90;;;;;;5154278;27;20323;-41
2022/11/23 00:47:19;;;;;;;;;;;8.00;99.90;;;;;;5152091;27;19958;-40
2022/11/23 00:49:44;;;;;;;;;;;8.00;99.90;;;;;;5154180;27;19919;-41
2022/11/23 00:52:10;;;;;;;;;;;8.00;99.90;;;;;;5153803;27;19951;-41
2022/11/23 00:54:35;;;;;;;;;;;8.00;99.90;;;;;;5151789;27;19922;-40
2022/11/23 00:57:01;;;;;;;;;;;8.00;99.90;;;;;;5154196;27;19914;-40
2022/11/23 00:59:28;;;;;;;;;;;8.00;99.90;;;;;;5134224;27;19915;-40
2022/11/23 01:01:53;;;;;;;;;;;8.00;99.90;;;;;;5132160;28;19907;-43
2022/11/23 01:04:19;;;;;;;;;;;8.00;99.90;;;;;;5151861;27;20396;-41
2022/11/23 01:06:44;;;;;;;;;;;8.00;99.90;;;;;;5153450;27;20327;-40
2022/11/23 01:09:14;;;;;;;;;;;8.10;99.90;;;;;;5152023;27;19918;-41
2022/11/23 01:11:40;;;;;;;;;;;8.00;99.90;;;;;;5153788;27;19919;-42
2022/11/23 01:14:06;;;;;;;;;;;8.10;99.90;;;;;;5149881;27;19911;-41
2022/11/23 01:16:33;;;;;;;;;;;8.10;99.90;;;;;;5149748;27;19918;-42
2022/11/23 01:19:00;;;;;;;;;;;8.10;99.90;;;;;;5153753;27;19908;-40
2022/11/23 01:21:26;;;;;;;;;;;8.10;99.90;;;;;;5153471;27;19994;-41
2022/11/23 01:23:52;;;;;;;;;;;8.10;99.90;;;;;;5152802;27;20012;-43
2022/11/23 01:26:18;;;;;;;;;;;8.10;99.90;;;;;;5153661;27;19963;-41
2022/11/23 01:28:43;;;;;;;;;;;8.10;99.90;;;;;;5153705;27;19968;-44
2022/11/23 01:31:10;;;;;;;;;;;8.10;99.90;;;;;;5133035;27;20346;-41
2022/11/23 01:33:36;;;;;;;;;;;8.10;99.90;;;;;;5148355;27;20361;-39
2022/11/23 01:36:11;;;;;;;;;;;8.10;99.90;;;;;;5153265;27;19956;-44
2022/11/23 01:38:37;;;;;;;;;;;8.10;99.90;;;;;;5153119;27;19907;-40
2022/11/23 01:41:03;;;;;;;;;;;8.20;99.90;;;;;;5153084;27;19964;-40
2022/11/23 01:43:28;;;;;;;;;;;8.20;99.90;;;;;;5152891;27;19914;-41
2022/11/23 01:45:55;;;;;;;;;;;8.20;99.90;;;;;;5144600;27;19911;-39
2022/11/23 01:48:25;;;;;;;;;;;8.20;99.90;;;;;;5132870;28;19949;-40
2022/11/23 01:50:51;;;;;;;;;;;8.20;99.90;;;;;;5145842;27;19923;-40
2022/11/23 01:53:16;;;;;;;;;;;8.20;99.90;;;;;;5153591;27;19951;-39
2022/11/23 01:55:44;;;;;;;;;;;8.20;99.90;;;;;;5153747;27;19911;-40
2022/11/23 01:58:11;;;;;;;;;;;8.20;99.90;;;;;;5152716;27;19911;-40
2022/11/23 02:00:38;;;;;;;;;;;8.20;99.90;;;;;;5156811;27;20151;-41
2022/11/23 02:03:05;;;;;;;;;;;8.20;99.90;;;;;;5147660;27;19946;-40
2022/11/23 02:05:36;;;;;;;;;;;8.20;99.90;;;;;;5156666;27;19997;-41
2022/11/23 02:08:02;;;;;;;;;;;8.20;99.90;;;;;;5156345;27;19918;-43
2022/11/23 02:10:29;;;;;;;;;;;8.20;99.90;;;;;;5157137;27;19907;-40
2022/11/23 02:12:54;;;;;;;;;;;8.20;99.90;;;;;;5155639;27;19915;-40
2022/11/23 02:15:20;;;;;;;;;;;8.30;99.90;;;;;;5157317;27;19910;-39
2022/11/23 02:17:45;;;;;;;;;;;8.30;99.90;;;;;;5147175;27;20293;-41
2022/11/23 02:20:16;;;;;;;;;;;8.30;99.90;;;;;;5135668;27;19966;-41
2022/11/23 02:22:51;;;;;;;;;;;8.30;99.90;;;;;;5150286;27;19953;-43
2022/11/23 02:25:21;;;;;;;;;;;8.30;99.90;;;;;;5157179;27;20326;-40
2022/11/23 02:27:46;;;;;;;;;;;8.30;99.90;;;;;;5156045;27;19917;-41
2022/11/23 02:30:12;;;;;;;;;;;8.30;99.90;;;;;;5157008;27;20272;-40
2022/11/23 02:32:37;;;;;;;;;;;8.30;99.90;;;;;;5149840;27;20359;-40
2022/11/23 02:35:03;;;;;;;;;;;8.30;99.90;;;;;;5153170;27;19911;-41
2022/11/23 02:37:28;;;;;;;;;;;8.30;99.90;;;;;;5156876;27;19919;-40
2022/11/23 02:39:55;;;;;;;;;;;8.30;99.90;;;;;;5155627;27;20352;-41
2022/11/23 02:42:21;;;;;;;;;;;8.30;99.90;;;;;;5156406;27;20369;-41
2022/11/23 02:44:47;;;;;;;;;;;8.30;99.90;;;;;;5156463;27;20338;-41
2022/11/23 02:47:13;;;;;;;;;;;8.30;99.90;;;;;;5155758;27;20002;-41
2022/11/23 02:49:44;;;;;;;;;;;8.30;99.90;;;;;;5156314;27;19919;-41
2022/11/23 02:52:09;;;;;;;;;;;8.40;99.90;;;;;;5137544;27;20302;-44
2022/11/23 02:54:35;;;;;;;;;;;8.30;99.90;;;;;;5155136;27;19911;-41
2022/11/23 02:57:00;;;;;;;;;;;8.40;99.90;;;;;;5156517;27;19951;-39
2022/11/23 02:59:26;;;;;;;;;;;8.40;99.90;;;;;;5156306;27;19973;-39
2022/11/23 03:01:52;;;;;;;;;;;8.40;99.90;;;;;;5155405;27;19918;-43
2022/11/23 03:04:17;;;;;;;;;;;8.40;99.90;;;;;;5156272;27;19911;-40
2022/11/23 03:06:43;;;;;;;;;;;8.40;99.90;;;;;;5145916;27;19916;-41
2022/11/23 03:09:08;;;;;;;;;;;8.40;99.90;;;;;;5155452;27;19908;-40
2022/11/23 03:11:34;;;;;;;;;;;8.40;99.90;;;;;;5155501;27;19921;-41
2022/11/23 03:13:59;;;;;;;;;;;8.40;99.90;;;;;;5155571;27;19915;-41
2022/11/23 03:16:25;;;;;;;;;;;8.40;99.90;;;;;;5155550;27;20031;-41
2022/11/23 03:18:50;;;;;;;;;;;8.40;99.90;;;;;;5155704;27;19919;-40
2022/11/23 03:21:16;;;;;;;;;;;8.40;99.90;;;;;;5155040;27;19918;-41
2022/11/23 03:23:41;;;;;;;;;;;8.40;99.90;;;;;;5150188;27;20431;-41
2022/11/23 03:26:07;;;;;;;;;;;8.40;99.90;;;;;;5146407;27;19918;-41
2022/11/23 03:28:32;;;;;;;;;;;8.40;99.90;;;;;;5156085;27;19907;-39
2022/11/23 03:30:58;;;;;;;;;;;8.40;99.90;;;;;;5154784;27;20254;-41
2022/11/23 03:33:23;;;;;;;;;;;8.40;99.90;;;;;;5155819;27;19952;-40
2022/11/23 03:35:49;;;;;;;;;;;8.40;99.90;;;;;;5155357;27;20276;-45
2022/11/23 03:38:14;;;;;;;;;;;8.40;99.90;;;;;;5155050;27;19911;-40
2022/11/23 03:40:40;;;;;;;;;;;8.40;99.90;;;;;;5152224;27;20382;-41
2022/11/23 03:43:05;;;;;;;;;;;8.40;99.90;;;;;;5142042;27;20021;-41
2022/11/23 03:45:31;;;;;;;;;;;8.40;99.90;;;;;;5155462;27;20281;-40
2022/11/23 03:47:56;;;;;;;;;;;8.40;99.90;;;;;;5155095;27;19918;-40
2022/11/23 03:50:22;;;;;;;;;;;8.40;99.90;;;;;;5154429;27;19941;-41
2022/11/23 03:52:48;;;;;;;;;;;8.40;99.90;;;;;;5154825;27;19915;-39
2022/11/23 03:55:13;;;;;;;;;;;8.40;99.90;;;;;;5155439;27;20277;-39
2022/11/23 03:57:39;;;;;;;;;;;8.40;99.90;;;;;;5150998;27;19925;-39
2022/11/23 04:00:05;;;;;;;;;;;8.40;99.90;;;;;;5154830;27;20422;-40
2022/11/23 04:02:30;;;;;;;;;;;8.40;99.90;;;;;;5155152;27;20006;-42
2022/11/23 04:04:56;;;;;;;;;;;8.40;99.90;;;;;;5154727;27;19907;-40
2022/11/23 04:07:21;;;;;;;;;;;8.40;99.90;;;;;;5154879;27;19959;-40
2022/11/23 04:09:47;;;;;;;;;;;8.40;99.90;;;;;;5155074;27;19964;-41
2022/11/23 04:12:12;;;;;;;;;;;8.50;99.90;;;;;;5154423;27;20437;-41
2022/11/23 04:14:38;;;;;;;;;;;8.50;99.90;;;;;;5148704;27;19915;-42
2022/11/23 04:17:03;;;;;;;;;;;8.50;99.90;;;;;;5155075;27;19946;-41
2022/11/23 04:19:29;;;;;;;;;;;8.50;99.90;;;;;;5154014;27;20278;-39
2022/11/23 04:21:54;;;;;;;;;;;8.50;99.90;;;;;;5154158;27;19915;-39
2022/11/23 04:24:20;;;;;;;;;;;8.50;99.90;;;;;;5154590;27;19911;-39
2022/11/23 04:26:45;;;;;;;;;;;8.50;99.90;;;;;;5153724;27;19918;-42
2022/11/23 04:29:11;;;;;;;;;;;8.50;99.90;;;;;;5152230;27;19918;-41
2022/11/23 04:31:37;;;;;;;;;;;8.50;99.90;;;;;;5134063;27;20422;-41
2022/11/23 04:34:02;;;;;;;;;;;8.50;99.90;;;;;;5150315;27;19918;-39
2022/11/23 04:36:28;;;;;;;;;;;8.50;99.90;;;;;;5154722;27;19908;-39
2022/11/23 04:38:53;;;;;;;;;;;8.40;99.90;;;;;;5154435;27;19911;-39
2022/11/23 04:41:18;;;;;;;;;;;8.50;99.90;;;;;;5153625;27;20382;-40
2022/11/23 04:43:46;;;;;;;;;;;8.40;99.90;;;;;;5154677;27;19946;-41
2022/11/23 04:46:11;;;;;;;;;;;8.40;99.90;;;;;;5137747;27;19919;-41
2022/11/23 04:48:37;;;;;;;;;;;8.40;99.90;;;;;;5154390;27;19911;-40
2022/11/23 04:51:02;;;;;;;;;;;8.40;99.90;;;;;;5153422;27;20434;-40
2022/11/23 04:53:28;;;;;;;;;;;8.40;99.90;;;;;;5153466;27;19911;-41
2022/11/23 04:55:53;;;;;;;;;;;8.40;99.90;;;;;;5154474;27;20319;-41
2022/11/23 04:58:18;;;;;;;;;;;8.30;99.90;;;;;;5153995;27;20155;-40
2022/11/23 05:00:44;;;;;;;;;;;8.30;99.90;;;;;;5153433;27;19918;-39
2022/11/23 05:03:09;;;;;;;;;;;8.30;99.90;;;;;;5136703;27;19936;-42
2022/11/23 05:05:38;;;;;;;;;;;8.30;99.90;;;;;;5140698;27;20381;-39
2022/11/23 05:08:04;;;;;;;;;;;8.30;99.90;;;;;;5153472;27;19907;-39
2022/11/23 05:10:29;;;;;;;;;;;8.30;99.90;;;;;;5154465;27;19915;-42
2022/11/23 05:12:55;;;;;;;;;;;8.30;99.90;;;;;;5154047;27;20307;-41
2022/11/23 05:15:20;;;;;;;;;;;8.40;99.90;;;;;;5153462;27;20380;-40
2022/11/23 05:17:46;;;;;;;;;;;8.40;99.90;;;;;;5153847;27;19919;-41
2022/11/23 05:20:11;;;;;;;;;;;8.40;99.90;;;;;;5141559;27;20006;-43
2022/11/23 05:22:37;;;;;;;;;;;8.40;99.90;;;;;;5145167;27;19915;-40
2022/11/23 05:25:02;;;;;;;;;;;8.40;99.90;;;;;;5154172;27;19908;-40
2022/11/23 05:27:28;;;;;;;;;;;8.40;99.90;;;;;;5153394;27;19915;-41
2022/11/23 05:29:53;;;;;;;;;;;8.40;99.90;;;;;;5153142;27;19913;-40
2022/11/23 05:32:19;;;;;;;;;;;8.40;99.90;;;;;;5151920;27;19919;-43
2022/11/23 05:34:44;;;;;;;;;;;8.40;99.90;;;;;;5155924;27;19954;-41
2022/11/23 05:37:10;;;;;;;;;;;8.40;99.90;;;;;;5148449;27;19919;-40
2022/11/23 05:39:35;;;;;;;;;;;8.30;99.90;;;;;;5157193;27;20010;-39
2022/11/23 05:42:01;;;;;;;;;;;8.30;99.90;;;;;;5157362;27;19911;-40
2022/11/23 05:44:26;;;;;;;;;;;8.30;99.90;;;;;;5157221;27;19926;-39
2022/11/23 05:46:51;;;;;;;;;;;8.30;99.90;;;;;;5158034;27;19915;-40
2022/11/23 05:49:17;;;;;;;;;;;8.20;99.90;;;;;;5157429;27;19907;-40
2022/11/23 05:51:42;;;;;;;;;;;8.20;99.90;;;;;;5152456;27;19981;-40
2022/11/23 05:54:08;;;;;;;;;;;8.20;99.90;;;;;;5136898;27;20274;-41
2022/11/23 05:56:33;;;;;;;;;;;8.20;99.90;;;;;;5136363;27;19957;-39
2022/11/23 05:58:59;;;;;;;;;;;8.10;99.90;;;;;;5155777;27;20278;-40
2022/11/23 06:01:24;;;;;;;;;;;8.10;99.90;;;;;;5157552;27;19911;-41
2022/11/23 06:03:50;;;;;;;;;;;8.10;99.90;;;;;;5156923;27;20069;-39
2022/11/23 06:06:16;;;;;;;;;;;8.00;99.90;;;;;;5156999;27;19911;-42
2022/11/23 06:08:41;;;;;;;;;;;8.00;99.90;;;;;;5146225;27;19911;-40
2022/11/23 06:11:07;;;;;;;;;;;8.00;99.90;;;;;;5135829;27;19915;-40
2022/11/23 06:13:33;;;;;;;;;;;7.90;99.90;;;;;;5136800;27;19908;-40
2022/11/23 06:15:59;;;;;;;;;;;7.90;99.90;;;;;;5136641;27;19981;-41
2022/11/23 06:18:24;;;;;;;;;;;7.90;99.90;;;;;;5135831;27;19908;-41
2022/11/23 06:20:50;;;;;;;;;;;7.80;99.90;;;;;;5145941;27;19915;-40
2022/11/23 06:23:15;;;;;;;;;;;7.80;99.90;;;;;;5156803;27;20356;-40
2022/11/23 06:25:40;;;;;;;;;;;7.80;99.90;;;;;;5148810;27;19916;-41
2022/11/23 06:28:06;;;;;;;;;;;7.80;99.90;;;;;;5141920;27;20388;-42
2022/11/23 06:30:32;;;;;;;;;;;7.80;99.90;;;;;;5156681;27;19915;-40
2022/11/23 06:33:00;;;;;;;;;;;7.80;99.90;;;;;;5156213;27;19907;-42
2022/11/23 06:35:26;;;;;;;;;;;7.80;99.90;;;;;;5157111;27;19907;-41
2022/11/23 06:37:53;;;;;;;;;;;7.70;99.90;;;;;;5156852;27;20357;-40
2022/11/23 06:40:19;;;;;;;;;;;7.70;99.90;;;;;;5155964;27;19908;-39
2022/11/23 06:42:44;;;;;;;;;;;7.70;99.90;;;;;;5147741;27;19911;-41
2022/11/23 06:45:10;;;;;;;;;;;7.70;99.90;;;;;;5155825;27;20258;-40
2022/11/23 06:47:35;;;;;;;;;;;7.70;99.90;;;;;;5155663;27;19915;-43
2022/11/23 06:50:01;;;;;;;;;;;7.60;99.90;;;;;;5155791;27;19925;-41
2022/11/23 06:52:27;;;;;;;;;;;7.60;99.90;;;;;;5156151;27;20009;-39
2022/11/23 06:54:52;;;;;;;;;;;7.50;99.90;;;;;;5155858;27;19907;-40
2022/11/23 06:57:18;;;;;;;;;;;7.50;99.90;;;;;;5151311;27;19931;-41
2022/11/23 06:59:44;;;;;;;;;;;7.40;99.90;;;;;;5155657;27;20305;-40
2022/11/23 07:02:10;;;;;;;;;;;7.30;99.90;;;;;;5154675;27;20362;-40
2022/11/23 07:04:35;;;;;;;;;;;7.40;99.90;;;;;;5156337;27;19908;-41
2022/11/23 07:07:01;;;;;;;;;;;7.30;99.90;;;;;;5155583;27;19950;-41
2022/11/23 07:09:27;;;;;;;;;;;7.40;99.90;;;;;;5156520;27;19907;-40
2022/11/23 07:11:52;;;;;;;;;;;7.40;99.90;;;;;;5156333;27;19968;-40
2022/11/23 07:14:18;;;;;;;;;;;7.40;99.90;;;;;;5149820;27;19998;-39
2022/11/23 07:16:43;;;;;;;;;;;7.50;99.90;;;;;;5144525;27;19911;-40
2022/11/23 07:19:09;;;;;;;;;;;7.40;99.90;;;;;;5155370;27;19911;-40
2022/11/23 07:21:34;;;;;;;;;;;7.50;99.90;;;;;;5154458;27;20346;-40
2022/11/23 07:24:00;;;;;;;;;;;7.50;99.90;;;;;;5155777;27;19911;-40
2022/11/23 07:26:25;;;;;;;;;;;7.50;99.90;;;;;;5155909;27;19914;-42
2022/11/23 07:28:51;;;;;;;;;;;7.50;99.90;;;;;;5155184;27;19907;-39
2022/11/23 07:31:16;;;;;;;;;;;7.50;99.90;;;;;;5153371;27;20327;-40
2022/11/23 07:33:42;;;;;;;;;;;7.50;99.90;;;;;;5135172;27;19947;-40
2022/11/23 07:36:08;;;;;;;;;;;7.60;99.90;;;;;;5137779;27;19907;-39
2022/11/23 07:38:33;;;;;;;;;;;7.50;99.90;;;;;;5155807;27;20353;-43
2022/11/23 07:41:00;;;;;;;;;;;7.60;99.90;;;;;;5155217;27;20002;-40
2022/11/23 07:43:26;;;;;;;;;;;7.60;99.90;;;;;;5154280;27;19910;-43
2022/11/23 07:45:53;;;;;;;;;;;7.70;99.90;;;;;;5155157;27;19911;-40
2022/11/23 07:48:19;;;;;;;;;;;7.70;99.90;;;;;;5151476;27;20280;-40
2022/11/23 07:50:44;;;;;;;;;;;7.70;99.90;;;;;;5153907;27;20009;-40
2022/11/23 07:53:10;;;;;;;;;;;7.80;99.90;;;;;;5155439;27;19912;-41
2022/11/23 07:55:35;;;;;;;;;;;7.80;99.90;;;;;;5155541;27;19935;-40
2022/11/23 07:58:01;;;;;;;;;;;7.80;99.90;;;;;;5153538;27;20301;-41
2022/11/23 08:00:27;;;;;;;;;;;7.80;99.90;;;;;;5154481;27;19911;-41
2022/11/23 08:02:53;;;;;;;;;;;7.80;99.90;;;;;;5153779;27;19972;-41
2022/11/23 08:05:18;;;;;;;;;;;7.80;99.90;;;;;;5155302;27;19911;-41
2022/11/23 08:07:44;;;;;;;;;;;7.90;99.90;;;;;;5154637;27;19918;-40
2022/11/23 08:10:11;;;;;;;;;;;7.90;99.90;;;;;;5153637;27;19918;-44
2022/11/23 08:12:36;;;;;;;;;;;7.90;99.90;;;;;;5154359;27;19915;-40
2022/11/23 08:15:02;;;;;;;;;;;7.90;99.90;;;;;;5154253;27;19914;-39
2022/11/23 08:17:27;;;;;;;;;;;8.00;99.90;;;;;;5153038;27;20139;-41
2022/11/23 08:19:53;;;;;;;;;;;8.00;99.90;;;;;;5135139;27;20344;-40
2022/11/23 08:22:18;;;;;;;;;;;8.00;99.90;;;;;;5142185;27;19914;-42
2022/11/23 08:24:44;;;;;;;;;;;8.00;99.90;;;;;;5154060;27;19972;-40
2022/11/23 08:27:09;;;;;;;;;;;8.10;99.90;;;;;;5154689;27;19907;-41
2022/11/23 08:29:35;;;;;;;;;;;8.10;99.90;;;;;;5154296;27;20247;-41
2022/11/23 08:32:00;;;;;;;;;;;8.20;99.90;;;;;;5153372;27;19930;-40
2022/11/23 08:34:26;;;;;;;;;;;8.20;99.90;;;;;;5154644;27;19907;-40
2022/11/23 08:36:51;;;;;;;;;;;8.20;99.90;;;;;;5154742;27;19908;-40
2022/11/23 08:39:18;;;;;;;;;;;8.20;99.90;;;;;;5142920;27;19950;-42
2022/11/23 08:41:43;;;;;;;;;;;8.30;99.90;;;;;;5150444;27;20389;-42
2022/11/23 08:44:10;;;;;;;;;;;8.30;99.90;;;;;;5149959;27;19950;-41
2022/11/23 08:46:36;;;;;;;;;;;8.30;99.90;;;;;;5147243;27;19938;-41
2022/11/23 08:49:01;;;;;;;;;;;8.40;99.90;;;;;;5152099;27;19946;-41
2022/11/23 08:51:27;;;;;;;;;;;8.40;99.90;;;;;;5152779;27;19919;-41
2022/11/23 08:53:52;;;;;;;;;;;8.40;99.90;;;;;;5151662;27;19911;-39
2022/11/23 08:56:18;;;;;;;;;;;8.50;99.90;;;;;;5148746;27;19918;-42
2022/11/23 08:58:43;;;;;;;;;;;8.50;99.90;;;;;;5153094;27;19942;-40
2022/11/23 09:01:09;;;;;;;;;;;8.50;99.90;;;;;;5152361;27;19907;-42
2022/11/23 09:03:35;;;;;;;;;;;8.60;99.90;;;;;;5152409;27;20282;-41
2022/11/23 09:06:00;;;;;;;;;;;8.60;99.90;;;;;;5152456;27;19919;-41
2022/11/23 09:08:26;;;;;;;;;;;8.70;99.90;;;;;;5151316;27;19915;-40
2022/11/23 09:10:51;;;;;;;;;;;8.70;99.90;;;;;;5153124;27;20266;-41
2022/11/23 09:13:17;;;;;;;;;;;8.70;99.90;;;;;;5149050;27;19919;-41
2022/11/23 09:15:42;;;;;;;;;;;8.80;99.90;;;;;;5152403;27;19907;-40
2022/11/23 09:18:08;;;;;;;;;;;8.80;99.90;;;;;;5152284;27;19954;-40
2022/11/23 09:20:33;;;;;;;;;;;8.90;99.90;;;;;;5152134;27;19918;-40
2022/11/23 09:22:59;;;;;;;;;;;8.90;99.90;;;;;;5150540;27;19918;-40
2022/11/23 09:25:24;;;;;;;;;;;8.90;99.90;;;;;;5149587;27;20308;-41
2022/11/23 09:27:55;;;;;;;;;;;9.00;99.90;;;;;;5151640;27;19921;-40
2022/11/23 09:30:20;;;;;;;;;;;9.00;99.90;;;;;;5153146;27;19911;-42
2022/11/23 09:32:46;;;;;;;;;;;9.00;99.90;;;;;;5151126;27;19926;-41
2022/11/23 09:35:11;;;;;;;;;;;9.00;99.90;;;;;;5152222;27;19911;-41
2022/11/23 09:37:37;;;;;;;;;;;9.00;99.90;;;;;;5154080;27;19911;-40
2022/11/23 09:40:03;;;;;;;;;;;9.10;99.90;;;;;;5153432;27;20327;-42
2022/11/23 09:42:34;;;;;;;;;;;9.10;99.90;;;;;;5153073;27;19941;-41
2022/11/23 09:45:14;;;;;;;;;;;9.10;99.90;;;;;;5153434;27;19923;-42
2022/11/23 09:47:40;;;;;;;;;;;9.10;99.90;;;;;;5153687;27;19918;-41
2022/11/23 09:50:05;;;;;;;;;;;9.10;99.90;;;;;;5137462;27;20014;-41
2022/11/23 09:52:31;;;;;;;;;;;9.10;99.90;;;;;;5153239;27;20009;-40
2022/11/23 09:54:57;;;;;;;;;;;9.10;99.90;;;;;;5153344;27;19943;-42
2022/11/23 09:57:24;;;;;;;;;;;9.20;99.90;;;;;;5152496;27;19911;-40
2022/11/23 09:59:54;;;;;;;;;;;9.20;99.90;;;;;;5152987;27;19911;-41
2022/11/23 10:02:24;;;;;;;;;;;9.10;99.90;;;;;;5153207;27;19950;-42
2022/11/23 10:04:52;;;;;;;;;;;9.20;99.90;;;;;;5152125;27;19955;-42
2022/11/23 10:07:29;;;;;;;;;;;9.20;99.90;;;;;;5153820;27;19958;-41
2022/11/23 10:10:22;;;;;;;;;;;9.20;99.90;;;;;;5152651;27;19956;-42
2022/11/23 10:13:01;;;;;;;;;;;9.20;99.90;;;;;;5143006;27;19919;-41
2022/11/23 10:15:29;;;;;;;;;;;9.20;99.90;;;;;;5153712;27;19908;-41
2022/11/23 10:17:57;;;;;;;;;;;9.20;99.90;;;;;;5152805;27;20285;-41
2022/11/23 10:20:41;;;;;;;;;;;9.20;99.90;;;;;;5155107;27;19907;-40
2022/11/23 10:23:15;;;;;;;;;;;9.20;99.90;;;;;;5157158;27;19907;-40
2022/11/23 10:25:44;;;;;;;;;;;9.30;99.90;;;;;;5155478;27;19911;-42
2022/11/23 10:28:12;;;;;;;;;;;9.20;99.90;;;;;;5156865;27;19907;-42
2022/11/23 10:30:37;;;;;;;;;;;9.30;99.90;;;;;;5156660;27;20139;-42
2022/11/23 10:33:22;;;;;;;;;;;9.30;99.90;;;;;;5155433;27;20350;-40
2022/11/23 10:35:47;;;;;;;;;;;9.30;99.90;;;;;;5157898;27;20354;-40
2022/11/23 10:38:13;;;;;;;;;;;9.30;99.90;;;;;;5157264;27;19911;-41
2022/11/23 10:40:42;;;;;;;;;;;9.30;99.90;;;;;;5157594;27;19943;-42
2022/11/23 10:43:15;;;;;;;;;;;9.30;99.90;;;;;;5156999;27;19950;-39
2022/11/23 10:45:41;;;;;;;;;;;9.30;99.90;;;;;;5154971;27;20006;-41
2022/11/23 10:48:07;;;;;;;;;;;9.30;99.90;;;;;;5156081;27;19998;-40
2022/11/23 10:50:36;;;;;;;;;;;9.30;99.90;;;;;;5154969;27;20014;-41
2022/11/23 10:53:04;;;;;;;;;;;9.40;99.90;;;;;;5150420;27;19919;-41
2022/11/23 10:55:45;;;;;;;;;;;9.40;99.90;;;;;;5153666;27;19930;-42
2022/11/23 10:58:24;;;;;;;;;;;9.50;99.90;;;;;;5153827;27;20043;-40
2022/11/23 11:00:57;;;;;;;;;;;9.40;99.90;;;;;;5153289;27;19907;-41
2022/11/23 11:03:23;;;;;;;;;;;9.40;99.90;;;;;;5134463;27;19912;-41
2022/11/23 11:05:49;;;;;;;;;;;9.50;99.90;;;;;;5134665;27;19912;-42
2022/11/23 11:08:18;;;;;;;;;;;9.60;99.90;;;;;;5154215;27;19912;-40
2022/11/23 11:10:48;;;;;;;;;;;9.70;99.90;;;;;;5155630;27;19963;-39
2022/11/23 11:13:20;;;;;;;;;;;9.90;99.90;;;;;;5154453;27;20277;-40
2022/11/23 11:15:56;;;;;;;;;;;9.90;99.90;;;;;;5155377;27;20285;-43
2022/11/23 11:18:23;;;;;;;;;;;10.00;99.90;;;;;;5155351;27;19915;-42
2022/11/23 11:20:55;;;;;;;;;;;10.10;99.90;;;;;;5154824;27;19907;-42
2022/11/23 11:23:21;;;;;;;;;;;10.30;99.90;;;;;;5154643;27;19919;-41
2022/11/23 11:25:47;;;;;;;;;;;10.40;99.90;;;;;;5154206;27;19911;-41
2022/11/23 11:28:22;;;;;;;;;;;10.40;99.90;;;;;;5153822;27;19911;-42
2022/11/23 11:31:02;;;;;;;;;;;10.40;99.90;;;;;;5134591;27;19922;-40
2022/11/23 11:33:31;;;;;;;;;;;10.50;99.90;;;;;;5154577;27;19922;-41
2022/11/23 11:35:58;;;;;;;;;;;10.70;99.90;;;;;;5154071;27;20002;-41
2022/11/23 11:38:28;;;;;;;;;;;10.80;99.90;;;;;;5156330;27;19957;-42
2022/11/23 11:40:55;;;;;;;;;;;10.90;99.90;;;;;;5155963;27;19950;-41
2022/11/23 11:43:24;;;;;;;;;;;11.00;99.90;;;;;;5156109;27;19913;-40
2022/11/23 11:45:52;;;;;;;;;;;11.10;99.90;;;;;;5156300;27;19913;-40
2022/11/23 11:48:43;;;;;;;;;;;11.20;99.90;;;;;;5155933;27;19930;-41
2022/11/23 11:51:32;;;;;;;;;;;11.10;99.90;;;;;;5150360;27;19919;-41
2022/11/23 11:53:57;;;;;;;;;;;11.30;99.90;;;;;;5106998;27;19908;-41
2022/11/23 11:56:29;;;;;;;;;;;11.40;99.90;;;;;;5153904;27;20392;-42
2022/11/23 11:58:58;;;;;;;;;;;11.40;99.90;;;;;;5138340;27;19982;-40
2022/11/23 12:01:34;;;;;;;;;;;11.50;99.90;;;;;;5144787;27;20460;-40
2022/11/23 12:04:05;;;;;;;;;;;11.60;99.90;;;;;;5155377;27;19907;-42
2022/11/23 12:06:34;;;;;;;;;;;11.60;99.90;;;;;;5155212;27;19958;-42
2022/11/23 12:09:05;;;;;;;;;;;11.70;99.90;;;;;;5155123;27;19962;-40
2022/11/23 12:11:31;;;;;;;;;;;11.70;99.90;;;;;;5154407;27;19956;-41
2022/11/23 12:14:01;;;;;;;;;;;11.80;99.90;;;;;;5154845;27;19946;-40
2022/11/23 12:16:32;;;;;;;;;;;11.80;99.90;;;;;;5154052;27;19918;-40
2022/11/23 12:19:30;;;;;;;;;;;11.80;99.90;;;;;;5154784;27;19913;-42
2022/11/23 12:22:10;;;;;;;;;;;11.90;99.90;;;;;;5097086;27;19961;-42
2022/11/23 12:24:42;;;;;;;;;;;11.90;99.90;;;;;;5154176;27;19907;-41
2022/11/23 12:27:26;;;;;;;;;;;12.00;99.90;;;;;;5154794;27;19949;-41
2022/11/23 12:29:58;;;;;;;;;;;12.00;99.90;;;;;;5154962;27;19954;-41
2022/11/23 12:32:25;;;;;;;;;;;12.10;99.90;;;;;;5154057;27;20266;-42
2022/11/23 12:34:51;;;;;;;;;;;12.10;99.90;;;;;;5154640;27;20376;-40
2022/11/23 12:37:19;;;;;;;;;;;12.20;99.90;;;;;;5154783;27;20017;-44
2022/11/23 12:40:03;;;;;;;;;;;12.20;99.90;;;;;;5153926;27;19918;-42
2022/11/23 12:42:36;;;;;;;;;;;12.20;99.90;;;;;;5154627;27;20349;-40
2022/11/23 12:45:11;;;;;;;;;;;12.20;99.90;;;;;;5153094;27;20365;-42
2022/11/23 12:47:44;;;;;;;;;;;12.20;99.90;;;;;;5154708;27;19907;-40
2022/11/23 12:50:19;;;;;;;;;;;12.20;99.90;;;;;;5154202;27;20357;-40
2022/11/23 12:52:57;;;;;;;;;;;12.10;99.90;;;;;;5153031;27;19919;-42
2022/11/23 12:55:30;;;;;;;;;;;12.00;99.90;;;;;;5155397;27;19918;-41
2022/11/23 12:58:02;;;;;;;;;;;11.80;99.90;;;;;;5155337;27;19907;-42
2022/11/23 13:00:32;;;;;;;;;;;11.80;99.90;;;;;;5154412;27;19917;-40
2022/11/23 13:02:57;;;;;;;;;;;11.80;99.90;;;;;;5155367;27;19914;-41
2022/11/23 13:05:37;;;;;;;;;;;11.80;99.90;;;;;;5155134;27;19907;-40
2022/11/23 13:08:08;;;;;;;;;;;11.90;99.90;;;;;;5155021;27;20010;-42
2022/11/23 13:10:40;;;;;;;;;;;11.90;99.90;;;;;;5154922;27;19965;-40
2022/11/23 13:13:17;;;;;;;;;;;12.00;99.90;;;;;;5154355;27;20368;-41
2022/11/23 13:16:01;;;;;;;;;;;12.00;99.90;;;;;;5153371;27;19922;-43
2022/11/23 13:18:37;;;;;;;;;;;12.20;99.90;;;;;;5149143;27;19907;-44
2022/11/23 13:21:21;;;;;;;;;;;12.30;99.90;;;;;;5151932;27;20266;-40
2022/11/23 13:23:46;;;;;;;;;;;12.40;99.90;;;;;;5152969;27;19911;-42
2022/11/23 13:26:12;;;;;;;;;;;12.80;99.90;;;;;;5152281;27;20403;-39
2022/11/23 13:28:37;;;;;;;;;;;13.00;99.90;;;;;;5151936;27;19915;-42
2022/11/23 13:31:15;;;;;;;;;;;13.20;99.90;;;;;;5152994;27;19919;-42
2022/11/23 13:33:45;;;;;;;;;;;13.40;99.90;;;;;;5145721;27;20356;-47
2022/11/23 13:36:11;;;;;;;;;;;13.60;99.90;;;;;;5151331;27;19911;-42
2022/11/23 13:38:41;;;;;;;;;;;13.70;99.90;;;;;;5152856;27;19911;-42
2022/11/23 13:41:25;;;;;;;;;;;13.60;99.90;;;;;;5152064;27;19911;-42
2022/11/23 13:43:50;;;;;;;;;;;13.50;99.90;;;;;;5152939;27;19956;-43
2022/11/23 13:46:28;;;;;;;;;;;13.60;99.90;;;;;;5153453;27;19907;-42
2022/11/23 13:48:54;;;;;;;;;;;13.80;99.90;;;;;;5152721;27;19911;-44
2022/11/23 13:51:26;;;;;;;;;;;13.90;99.90;;;;;;5152976;27;19919;-41
2022/11/23 13:53:54;;;;;;;;;;;14.00;99.90;;;;;;5152919;27;19915;-42
2022/11/23 13:56:37;;;;;;;;;;;14.00;99.90;;;;;;5155608;27;19911;-41
2022/11/23 13:59:24;;;;;;;;;;;14.00;99.90;;;;;;5156621;27;19926;-42
2022/11/23 14:01:59;;;;;;;;;;;14.00;99.90;;;;;;5157616;27;19934;-40
2022/11/23 14:04:25;;;;;;;;;;;14.00;99.90;;;;;;5157864;27;19958;-40
2022/11/23 14:06:56;;;;;;;;;;;13.90;99.90;;;;;;5158356;27;19907;-41
2022/11/23 14:09:23;;;;;;;;;;;13.80;99.90;;;;;;5156974;27;19907;-44
2022/11/23 14:12:04;;;;;;;;;;;13.70;99.90;;;;;;5157431;27;20396;-40
2022/11/23 14:14:34;;;;;;;;;;;13.70;99.90;;;;;;5157450;27;19907;-41
2022/11/23 14:16:59;;;;;;;;;;;13.60;99.90;;;;;;5156850;27;19907;-43
2022/11/23 14:19:44;;;;;;;;;;;13.40;99.90;;;;;;5156882;27;19914;-45
2022/11/23 14:22:31;;;;;;;;;;;13.20;99.90;;;;;;5157242;27;19907;-40
2022/11/23 14:25:21;;;;;;;;;;;12.90;99.90;;;;;;5155757;27;19907;-42
2022/11/23 14:27:56;;;;;;;;;;;12.80;99.90;;;;;;5157048;27;20002;-41
2022/11/23 14:30:40;;;;;;;;;;;12.50;99.90;;;;;;5156049;27;20441;-41